createdAt,value
2023-04-09T00:02:22.318Z,71.57
2023-04-09T00:04:50.483Z,97.77
2023-04-09T00:07:18.106Z,117.87
2023-04-09T00:09:46.135Z,117.03
2023-04-09T00:12:13.686Z,131.63
2023-04-09T00:14:41.505Z,130.17
2023-04-09T00:17:08.990Z,134.27
2023-04-09T00:19:36.975Z,139.83
2023-04-09T00:22:04.504Z,151.47
2023-04-09T00:24:32.278Z,153.73
2023-04-09T00:26:59.772Z,165.53
2023-04-09T00:29:27.707Z,170.50
2023-04-09T00:31:55.389Z,152.40
2023-04-09T00:34:23.294Z,140.63
2023-04-09T00:36:50.864Z,141.40
2023-04-09T00:39:18.744Z,127.07
2023-04-09T00:41:46.333Z,133.50
2023-04-09T00:44:14.282Z,129.17
2023-04-09T00:46:41.840Z,136.60
2023-04-09T00:49:09.676Z,134.43
2023-04-09T00:51:38.843Z,116.93
2023-04-09T00:54:06.757Z,131.80
2023-04-09T00:56:35.617Z,118.37
2023-04-09T00:59:03.455Z,115.60
2023-04-09T01:01:31.507Z,112.10
2023-04-09T01:03:59.479Z,103.97
2023-04-09T01:06:41.587Z,101.03
2023-04-09T01:09:20.563Z,112.63
2023-04-09T01:12:21.350Z,130.30
2023-04-09T01:15:03.500Z,126.60
2023-04-09T01:17:54.417Z,118.57
2023-04-09T01:20:42.700Z,108.93
2023-04-09T01:23:36.287Z,117.00
2023-04-09T01:26:19.682Z,122.47
2023-04-09T01:28:55.978Z,124.93
2023-04-09T01:31:36.718Z,127.67
2023-04-09T01:34:04.710Z,123.83
2023-04-09T01:36:34.053Z,124.33
2023-04-09T01:39:02.330Z,118.13
2023-04-09T01:41:32.720Z,120.27
2023-04-09T01:44:01.970Z,112.17
2023-04-09T01:46:31.231Z,110.43
2023-04-09T01:48:59.392Z,100.43
2023-04-09T01:51:27.418Z,88.20
2023-04-09T01:53:55.103Z,83.10
2023-04-09T01:56:22.903Z,76.80
2023-04-09T01:58:52.434Z,73.77
2023-04-09T02:01:35.635Z,67.70
2023-04-09T02:04:07.917Z,72.47
2023-04-09T02:06:58.287Z,70.97
2023-04-09T02:09:29.632Z,66.60
2023-04-09T02:12:00.901Z,68.17
2023-04-09T02:14:29.368Z,71.23
2023-04-09T02:16:57.258Z,60.40
2023-04-09T02:19:24.846Z,70.27
2023-04-09T02:21:52.619Z,68.77
2023-04-09T02:24:20.250Z,75.10
2023-04-09T02:26:48.333Z,74.27
2023-04-09T02:29:16.107Z,63.80
2023-04-09T02:31:45.304Z,72.80
2023-04-09T02:34:12.852Z,73.70
2023-04-09T02:36:40.700Z,70.20
2023-04-09T02:39:08.309Z,78.97
2023-04-09T02:41:36.123Z,70.77
2023-04-09T02:44:03.901Z,73.60
2023-04-09T02:46:31.827Z,75.90
2023-04-09T02:48:59.396Z,71.47
2023-04-09T02:51:27.575Z,82.13
2023-04-09T02:53:55.193Z,84.70
2023-04-09T02:56:23.041Z,78.73
2023-04-09T02:58:54.026Z,81.03
2023-04-09T03:01:22.446Z,81.30
2023-04-09T03:03:50.533Z,86.73
2023-04-09T03:06:18.685Z,78.90
2023-04-09T03:08:46.395Z,79.27
2023-04-09T03:11:14.189Z,85.17
2023-04-09T03:13:41.755Z,83.33
2023-04-09T03:16:10.405Z,87.13
2023-04-09T03:18:38.040Z,87.40
2023-04-09T03:21:07.589Z,88.50
2023-04-09T03:23:37.564Z,100.23
2023-04-09T03:26:08.068Z,89.73
2023-04-09T03:28:43.836Z,87.70
2023-04-09T03:31:11.756Z,84.23
2023-04-09T03:33:41.372Z,91.30
2023-04-09T03:36:10.394Z,86.50
2023-04-09T03:39:03.987Z,92.77
2023-04-09T03:41:35.731Z,89.07
2023-04-09T03:44:11.125Z,82.33
2023-04-09T03:46:59.214Z,79.47
2023-04-09T03:49:27.857Z,85.13
2023-04-09T03:51:59.172Z,82.97
2023-04-09T03:54:34.382Z,87.00
2023-04-09T03:57:03.836Z,93.43
2023-04-09T03:59:31.483Z,91.70
2023-04-09T04:01:59.964Z,91.23
2023-04-09T04:04:28.647Z,86.17
2023-04-09T04:06:58.615Z,131.70
2023-04-09T04:09:45.333Z,95.60
2023-04-09T04:12:16.731Z,104.07
2023-04-09T04:15:02.098Z,123.43
2023-04-09T04:17:36.393Z,107.73
2023-04-09T04:20:07.623Z,99.67
2023-04-09T04:22:44.332Z,100.70
2023-04-09T04:25:12.361Z,95.20
2023-04-09T04:27:43.556Z,99.60
2023-04-09T04:30:12.847Z,91.67
2023-04-09T04:33:01.171Z,94.30
2023-04-09T04:35:35.570Z,94.40
2023-04-09T04:38:05.663Z,98.77
2023-04-09T04:40:38.296Z,87.30
2023-04-09T04:43:07.519Z,91.23
2023-04-09T04:45:35.725Z,89.27
2023-04-09T04:48:09.847Z,101.40
2023-04-09T04:50:38.090Z,87.23
2023-04-09T04:53:09.419Z,81.23
2023-04-09T04:55:44.975Z,83.67
2023-04-09T04:58:15.688Z,75.43
2023-04-09T05:00:50.803Z,80.23
2023-04-09T05:03:18.812Z,79.97
2023-04-09T05:05:57.464Z,77.83
2023-04-09T05:08:28.980Z,75.97
2023-04-09T05:10:58.005Z,73.53
2023-04-09T05:13:33.424Z,75.33
2023-04-09T05:16:03.987Z,78.83
2023-04-09T05:18:33.865Z,71.77
2023-04-09T05:21:01.467Z,80.70
2023-04-09T05:23:31.989Z,83.63
2023-04-09T05:26:00.680Z,78.70
2023-04-09T05:28:45.159Z,69.57
2023-04-09T05:31:17.482Z,73.50
2023-04-09T05:34:06.188Z,66.87
2023-04-09T05:36:46.720Z,67.07
2023-04-09T05:39:14.657Z,64.43
2023-04-09T05:41:44.656Z,64.03
2023-04-09T05:44:29.186Z,64.70
2023-04-09T05:47:05.041Z,67.43
2023-04-09T05:49:42.694Z,62.37
2023-04-09T05:52:16.692Z,73.30
2023-04-09T05:54:44.835Z,61.43
2023-04-09T05:57:15.893Z,66.57
2023-04-09T05:59:48.869Z,67.87
2023-04-09T06:02:16.609Z,58.10
2023-04-09T06:04:44.721Z,54.13
2023-04-09T06:07:15.685Z,53.23
2023-04-09T06:09:46.996Z,52.53
2023-04-09T06:12:15.804Z,57.73
2023-04-09T06:14:43.640Z,56.30
2023-04-09T06:17:11.883Z,50.63
2023-04-09T06:19:39.701Z,54.07
2023-04-09T06:22:07.463Z,57.23
2023-04-09T06:24:35.263Z,59.60
2023-04-09T06:27:03.255Z,59.73
2023-04-09T06:29:31.322Z,53.13
2023-04-09T06:32:01.815Z,59.87
2023-04-09T06:34:31.809Z,54.97
2023-04-09T06:36:59.507Z,54.40
2023-04-09T06:39:28.044Z,57.57
2023-04-09T06:41:55.674Z,56.50
2023-04-09T06:44:34.113Z,59.03
2023-04-09T06:47:02.389Z,56.97
2023-04-09T06:49:30.473Z,61.20
2023-04-09T06:51:58.013Z,53.33
2023-04-09T06:54:26.019Z,58.97
2023-04-09T06:56:53.603Z,57.67
2023-04-09T06:59:21.487Z,61.40
2023-04-09T07:01:49.640Z,54.20
2023-04-09T07:04:18.362Z,55.60
2023-04-09T07:06:46.903Z,52.07
2023-04-09T07:09:14.979Z,51.00
2023-04-09T07:11:42.656Z,51.07
2023-04-09T07:14:10.867Z,51.50
2023-04-09T07:16:38.630Z,50.70
2023-04-09T07:19:07.563Z,50.17
2023-04-09T07:21:35.472Z,48.83
2023-04-09T07:24:03.505Z,47.00
2023-04-09T07:26:31.317Z,49.13
2023-04-09T07:28:59.573Z,40.83
2023-04-09T07:31:27.163Z,44.00
2023-04-09T07:33:55.467Z,46.00
2023-04-09T07:36:23.215Z,43.97
2023-04-09T07:38:51.813Z,47.27
2023-04-09T07:41:19.706Z,49.33
2023-04-09T07:43:47.907Z,122.63
2023-04-09T07:46:24.183Z,113.17
2023-04-09T07:48:52.991Z,56.33
2023-04-09T07:51:21.034Z,46.97
2023-04-09T07:53:49.071Z,43.80
2023-04-09T07:56:16.657Z,43.20
2023-04-09T07:58:44.842Z,50.40
2023-04-09T08:01:12.459Z,56.23
2023-04-09T08:03:40.840Z,41.97
2023-04-09T08:06:08.639Z,45.27
2023-04-09T08:08:36.599Z,53.50
2023-04-09T08:11:04.276Z,50.73
2023-04-09T08:13:32.246Z,42.33
2023-04-09T08:16:02.598Z,39.90
2023-04-09T08:18:30.689Z,38.63
2023-04-09T08:20:58.431Z,46.33
2023-04-09T08:23:26.584Z,39.90
2023-04-09T08:25:54.189Z,43.50
2023-04-09T08:28:22.069Z,42.10
2023-04-09T08:30:50.163Z,39.00
2023-04-09T08:33:18.158Z,36.67
2023-04-09T08:35:45.859Z,40.53
2023-04-09T08:38:15.052Z,41.97
2023-04-09T08:40:42.768Z,40.90
2023-04-09T08:43:14.796Z,38.63
2023-04-09T08:45:42.687Z,35.23
2023-04-09T08:48:11.213Z,39.67
2023-04-09T08:50:39.008Z,36.93
2023-04-09T08:53:08.422Z,45.10
2023-04-09T08:55:37.479Z,42.13
2023-04-09T08:58:07.593Z,35.37
2023-04-09T09:00:35.320Z,35.93
2023-04-09T09:03:06.627Z,36.83
2023-04-09T09:05:41.130Z,34.53
2023-04-09T09:08:26.079Z,35.57
2023-04-09T09:10:53.764Z,38.37
2023-04-09T09:13:28.420Z,40.27
2023-04-09T09:16:14.258Z,42.47
2023-04-09T09:18:43.764Z,40.07
2023-04-09T09:21:16.515Z,37.97
2023-04-09T09:23:45.079Z,44.47
2023-04-09T09:26:21.886Z,40.93
2023-04-09T09:28:50.116Z,35.17
2023-04-09T09:31:19.355Z,36.30
2023-04-09T09:33:48.443Z,34.63
2023-04-09T09:36:30.266Z,37.50
2023-04-09T09:39:02.199Z,48.37
2023-04-09T09:41:30.164Z,36.72
2023-04-09T09:43:57.782Z,51.20
2023-04-09T09:46:26.556Z,47.42
2023-04-09T09:48:54.478Z,34.38
2023-04-09T09:51:29.319Z,30.60
2023-04-09T09:53:57.900Z,31.88
2023-04-09T09:56:39.761Z,27.85
2023-04-09T09:59:26.075Z,29.92
2023-04-09T10:02:02.842Z,30.90
2023-04-09T10:04:34.775Z,29.83
2023-04-09T10:07:05.965Z,32.45
2023-04-09T10:09:37.449Z,29.40
2023-04-09T10:12:07.423Z,30.15
2023-04-09T10:14:36.073Z,30.55
2023-04-09T10:17:04.277Z,52.38
2023-04-09T10:19:40.090Z,37.72
2023-04-09T10:22:11.732Z,43.40
2023-04-09T10:24:40.102Z,29.92
2023-04-09T10:27:17.004Z,30.73
2023-04-09T10:29:49.940Z,30.85
2023-04-09T10:32:21.875Z,34.00
2023-04-09T10:34:50.863Z,32.70
2023-04-09T10:37:36.601Z,32.53
2023-04-09T10:40:04.847Z,28.98
2023-04-09T10:42:40.453Z,30.70
2023-04-09T10:45:16.835Z,35.03
2023-04-09T10:47:46.420Z,32.33
2023-04-09T10:50:32.326Z,31.92
2023-04-09T10:53:02.577Z,33.97
2023-04-09T10:55:44.458Z,32.33
2023-04-09T10:58:14.024Z,31.23
2023-04-09T11:00:44.091Z,29.40
2023-04-09T11:03:30.799Z,26.17
2023-04-09T11:06:09.399Z,22.67
2023-04-09T11:08:38.779Z,20.83
2023-04-09T11:11:06.637Z,22.67
2023-04-09T11:13:34.620Z,19.23
2023-04-09T11:16:06.895Z,20.10
2023-04-09T11:18:35.619Z,25.38
2023-04-09T11:21:06.369Z,22.75
2023-04-09T11:23:34.538Z,21.45
2023-04-09T11:26:02.516Z,21.88
2023-04-09T11:28:29.758Z,21.13
2023-04-09T11:30:57.619Z,21.75
2023-04-09T11:33:33.339Z,19.50
2023-04-09T11:36:01.876Z,18.10
2023-04-09T11:38:31.818Z,18.55
2023-04-09T11:40:59.513Z,19.17
2023-04-09T11:43:26.821Z,20.02
2023-04-09T11:45:55.884Z,18.42
2023-04-09T11:48:25.081Z,20.23
2023-04-09T11:50:52.794Z,18.00
2023-04-09T11:53:21.996Z,21.50
2023-04-09T11:55:53.644Z,19.00
2023-04-09T11:58:27.517Z,16.92
2023-04-09T12:00:56.503Z,18.20
2023-04-09T12:03:33.539Z,19.20
2023-04-09T12:06:03.196Z,18.95
2023-04-09T12:08:31.524Z,25.40
2023-04-09T12:11:16.156Z,22.10
2023-04-09T12:13:44.736Z,25.35
2023-04-09T12:16:13.320Z,23.88
2023-04-09T12:18:40.736Z,20.48
2023-04-09T12:21:08.257Z,21.15
2023-04-09T12:23:35.787Z,20.98
2023-04-09T12:26:03.610Z,22.05
2023-04-09T12:28:31.359Z,21.75
2023-04-09T12:30:59.640Z,22.20
2023-04-09T12:33:27.284Z,21.83
2023-04-09T12:35:58.452Z,20.55
2023-04-09T12:38:26.784Z,20.92
2023-04-09T12:40:54.224Z,22.88
2023-04-09T12:43:21.439Z,22.80
2023-04-09T12:45:48.976Z,21.60
2023-04-09T12:48:16.252Z,24.13
2023-04-09T12:50:43.705Z,25.23
2023-04-09T12:53:11.962Z,23.02
2023-04-09T12:55:40.980Z,22.52
2023-04-09T12:58:09.897Z,23.17
2023-04-09T13:00:37.512Z,24.95
2023-04-09T13:03:04.997Z,26.08
2023-04-09T13:05:35.592Z,24.88
2023-04-09T13:08:03.557Z,20.00
2023-04-09T13:10:31.523Z,23.52
2023-04-09T13:12:58.699Z,25.20
2023-04-09T13:15:26.202Z,23.10
2023-04-09T13:17:53.392Z,24.30
2023-04-09T13:20:21.173Z,22.15
2023-04-09T13:22:49.231Z,22.10
2023-04-09T13:25:16.944Z,22.67
2023-04-09T13:27:46.232Z,22.25
2023-04-09T13:30:14.884Z,24.30
2023-04-09T13:32:42.467Z,20.92
2023-04-09T13:35:11.016Z,23.63
2023-04-09T13:37:38.485Z,23.33
2023-04-09T13:40:07.106Z,24.05
2023-04-09T13:42:34.366Z,23.80
2023-04-09T13:45:01.794Z,22.48
2023-04-09T13:47:29.345Z,27.35
2023-04-09T13:49:56.755Z,23.42
2023-04-09T13:52:26.777Z,26.25
2023-04-09T13:54:56.923Z,24.88
2023-04-09T13:57:24.029Z,24.48
2023-04-09T13:59:51.669Z,22.55
2023-04-09T14:02:19.468Z,23.13
2023-04-09T14:04:47.412Z,19.38
2023-04-09T14:07:14.648Z,23.10
2023-04-09T14:09:42.134Z,21.23
2023-04-09T14:12:09.421Z,20.08
2023-04-09T14:14:36.900Z,20.40
2023-04-09T14:17:03.990Z,22.88
2023-04-09T14:19:31.315Z,27.75
2023-04-09T14:21:58.644Z,27.40
2023-04-09T14:24:26.305Z,21.55
2023-04-09T14:26:53.748Z,23.45
2023-04-09T14:29:22.222Z,24.70
2023-04-09T14:31:49.830Z,24.30
2023-04-09T14:34:17.395Z,27.00
2023-04-09T14:36:44.502Z,25.02
2023-04-09T14:39:11.846Z,23.48
2023-04-09T14:41:38.909Z,26.55
2023-04-09T14:44:06.299Z,26.77
2023-04-09T14:46:33.637Z,25.17
2023-04-09T14:49:01.271Z,29.55
2023-04-09T14:51:30.630Z,25.83
2023-04-09T14:53:58.107Z,27.75
2023-04-09T14:56:25.383Z,32.70
2023-04-09T14:58:53.051Z,30.15
2023-04-09T15:01:20.753Z,30.75
2023-04-09T15:03:48.301Z,25.95
2023-04-09T15:06:15.772Z,28.85
2023-04-09T15:08:44.614Z,31.02
2023-04-09T15:11:19.323Z,33.88
2023-04-09T15:13:47.619Z,33.72
2023-04-09T15:16:22.204Z,29.48
2023-04-09T15:18:52.558Z,31.35
2023-04-09T15:21:20.119Z,34.47
2023-04-09T15:23:47.902Z,33.35
2023-04-09T15:26:14.994Z,33.83
2023-04-09T15:28:42.496Z,35.42
2023-04-09T15:31:10.454Z,31.65
2023-04-09T15:33:38.299Z,32.15
2023-04-09T15:36:06.140Z,33.55
2023-04-09T15:38:33.559Z,31.40
2023-04-09T15:41:02.250Z,34.13
2023-04-09T15:43:30.322Z,33.97
2023-04-09T15:45:57.718Z,33.50
2023-04-09T15:48:25.523Z,35.92
2023-04-09T15:50:52.827Z,33.17
2023-04-09T15:53:23.903Z,35.10
2023-04-09T15:55:51.261Z,35.75
2023-04-09T15:58:18.900Z,37.03
2023-04-09T16:00:46.571Z,36.13
2023-04-09T16:03:14.762Z,37.13
2023-04-09T16:05:42.074Z,34.40
2023-04-09T16:08:10.075Z,35.58
2023-04-09T16:10:37.375Z,35.90
2023-04-09T16:13:05.401Z,32.07
2023-04-09T16:15:33.065Z,34.67
2023-04-09T16:18:00.914Z,34.57
2023-04-09T16:20:29.444Z,36.83
2023-04-09T16:22:57.126Z,32.87
2023-04-09T16:25:24.644Z,35.00
2023-04-09T16:27:52.507Z,34.10
2023-04-09T16:30:20.039Z,34.30
2023-04-09T16:32:48.249Z,33.47
2023-04-09T16:35:15.942Z,37.27
2023-04-09T16:37:43.813Z,36.87
2023-04-09T16:40:11.879Z,37.20
2023-04-09T16:42:40.056Z,37.93
2023-04-09T16:45:09.980Z,34.03
2023-04-09T16:47:38.537Z,39.30
2023-04-09T16:50:10.722Z,37.53
2023-04-09T16:52:40.287Z,46.37
2023-04-09T16:55:08.836Z,36.87
2023-04-09T16:57:38.231Z,41.63
2023-04-09T17:00:07.721Z,40.57
2023-04-09T17:02:36.578Z,43.30
2023-04-09T17:05:05.127Z,43.37
2023-04-09T17:07:33.293Z,41.03
2023-04-09T17:10:01.251Z,40.40
2023-04-09T17:12:29.384Z,42.43
2023-04-09T17:14:58.057Z,38.00
2023-04-09T17:17:26.386Z,43.00
2023-04-09T17:19:54.364Z,42.07
2023-04-09T17:22:22.651Z,44.13
2023-04-09T17:24:50.908Z,41.30
2023-04-09T17:27:19.698Z,45.73
2023-04-09T17:29:47.332Z,42.53
2023-04-09T17:32:15.585Z,41.80
2023-04-09T17:34:43.577Z,45.50
2023-04-09T17:37:11.837Z,39.80
2023-04-09T17:39:39.748Z,49.20
2023-04-09T17:42:08.011Z,43.57
2023-04-09T17:44:36.464Z,47.27
2023-04-09T17:47:04.844Z,49.70
2023-04-09T17:49:32.921Z,49.70
2023-04-09T17:52:01.285Z,52.83
2023-04-09T17:54:34.455Z,47.37
2023-04-09T17:57:04.206Z,44.10
2023-04-09T17:59:33.391Z,45.60
2023-04-09T18:02:02.430Z,128.57
2023-04-09T18:04:30.807Z,84.97
2023-04-09T18:06:59.136Z,87.00
2023-04-09T18:09:26.696Z,103.73
2023-04-09T18:11:56.619Z,141.50
2023-04-09T18:14:24.813Z,170.27
2023-04-09T18:16:52.774Z,124.90
2023-04-09T18:19:19.964Z,78.27
2023-04-09T18:21:47.457Z,53.37
2023-04-09T18:24:14.940Z,51.23
2023-04-09T18:26:42.740Z,53.50
2023-04-09T18:29:10.657Z,52.80
2023-04-09T18:31:38.854Z,52.37
2023-04-09T18:34:06.255Z,51.83
2023-04-09T18:36:34.026Z,48.60
2023-04-09T18:39:01.582Z,47.53
2023-04-09T18:41:30.644Z,53.90
2023-04-09T18:43:58.217Z,54.07
2023-04-09T18:46:26.180Z,54.80
2023-04-09T18:48:53.530Z,54.70
2023-04-09T18:51:21.161Z,54.00
2023-04-09T18:53:54.584Z,46.27
2023-04-09T18:56:22.257Z,45.43
2023-04-09T18:58:51.973Z,47.53
2023-04-09T19:01:20.381Z,44.47
2023-04-09T19:03:48.060Z,42.13
2023-04-09T19:06:18.398Z,41.37
2023-04-09T19:08:50.163Z,39.83
2023-04-09T19:11:17.801Z,40.10
2023-04-09T19:13:44.936Z,38.83
2023-04-09T19:16:12.425Z,43.53
2023-04-09T19:18:40.477Z,43.63
2023-04-09T19:21:09.484Z,48.93
2023-04-09T19:23:37.194Z,48.27
2023-04-09T19:26:05.633Z,52.07
2023-04-09T19:28:32.906Z,52.77
2023-04-09T19:31:02.862Z,84.30
2023-04-09T19:33:30.909Z,65.17
2023-04-09T19:35:58.407Z,84.93
2023-04-09T19:38:25.885Z,107.27
2023-04-09T19:40:53.493Z,111.03
2023-04-09T19:43:21.233Z,147.03
2023-04-09T19:45:49.530Z,130.10
2023-04-09T19:48:17.755Z,168.47
2023-04-09T19:50:46.240Z,176.50
2023-04-09T19:53:13.658Z,157.27
2023-04-09T19:55:41.606Z,297.50
2023-04-09T19:58:09.016Z,156.37
2023-04-09T20:00:37.251Z,103.90
2023-04-09T20:03:07.365Z,116.93
2023-04-09T20:05:35.056Z,147.07
2023-04-09T20:08:02.846Z,161.57
2023-04-09T20:10:30.951Z,256.70
2023-04-09T20:12:58.341Z,340.60
2023-04-09T20:15:26.299Z,256.53
2023-04-09T20:17:53.853Z,200.63
2023-04-09T20:20:22.213Z,111.47
2023-04-09T20:22:56.866Z,81.67
2023-04-09T20:25:25.747Z,49.43
2023-04-09T20:27:54.311Z,58.53
2023-04-09T20:30:23.100Z,54.83
2023-04-09T20:32:50.876Z,79.27
2023-04-09T20:35:18.698Z,129.67
2023-04-09T20:37:49.285Z,85.63
2023-04-09T20:40:17.143Z,75.57
2023-04-09T20:42:45.083Z,60.90
2023-04-09T20:45:13.570Z,80.83
2023-04-09T20:47:42.082Z,52.07
2023-04-09T20:50:11.938Z,42.43
2023-04-09T20:52:39.612Z,33.60
2023-04-09T20:55:07.812Z,35.67
2023-04-09T20:57:35.447Z,38.53
2023-04-09T21:00:03.684Z,32.00
2023-04-09T21:02:31.558Z,28.83
2023-04-09T21:05:03.473Z,29.37
2023-04-09T21:07:36.465Z,29.67
2023-04-09T21:10:05.799Z,36.13
2023-04-09T21:12:34.515Z,25.70
2023-04-09T21:15:02.169Z,28.87
2023-04-09T21:17:31.761Z,38.10
2023-04-09T21:19:59.220Z,29.70
2023-04-09T21:22:26.816Z,30.47
2023-04-09T21:24:54.573Z,24.67
2023-04-09T21:27:22.389Z,24.23
2023-04-09T21:29:49.910Z,26.33
2023-04-09T21:32:17.568Z,28.53
2023-04-09T21:34:45.132Z,27.23
2023-04-09T21:37:12.655Z,27.53
2023-04-09T21:39:40.618Z,30.87
2023-04-09T21:42:08.852Z,32.37
2023-04-09T21:44:36.679Z,26.70
2023-04-09T21:47:09.071Z,27.53
2023-04-09T21:49:39.841Z,28.93
2023-04-09T21:52:14.310Z,26.40
2023-04-09T21:54:42.972Z,30.10
2023-04-09T21:57:11.218Z,44.00
2023-04-09T21:59:41.339Z,58.40
2023-04-09T22:02:09.373Z,30.60
2023-04-09T22:04:37.876Z,25.80
2023-04-09T22:07:05.686Z,32.07
2023-04-09T22:09:33.702Z,28.03
2023-04-09T22:12:02.755Z,30.30
2023-04-09T22:14:32.481Z,26.37
2023-04-09T22:17:01.690Z,30.80
2023-04-09T22:19:30.986Z,39.07
2023-04-09T22:21:59.011Z,39.07
2023-04-09T22:24:28.766Z,35.13
2023-04-09T22:27:00.007Z,36.33
2023-04-09T22:29:28.413Z,39.13
2023-04-09T22:31:56.574Z,29.13
2023-04-09T22:34:24.869Z,35.30
2023-04-09T22:36:52.459Z,33.90
2023-04-09T22:39:21.583Z,27.03
2023-04-09T22:41:49.187Z,23.67
2023-04-09T22:44:17.480Z,25.93
2023-04-09T22:46:45.158Z,27.67
2023-04-09T22:49:13.112Z,22.60
2023-04-09T22:51:41.639Z,29.93
2023-04-09T22:54:10.021Z,30.03
2023-04-09T22:56:37.486Z,32.20
2023-04-09T22:59:06.172Z,35.13
2023-04-09T23:01:33.793Z,28.30
2023-04-09T23:04:01.695Z,34.77
2023-04-09T23:06:31.027Z,29.17
2023-04-09T23:09:00.023Z,28.97
2023-04-09T23:11:27.878Z,33.10
2023-04-09T23:13:55.798Z,26.30
2023-04-09T23:16:23.502Z,25.20
2023-04-09T23:18:51.479Z,22.43
2023-04-09T23:21:19.192Z,20.77
2023-04-09T23:23:47.049Z,20.27
2023-04-09T23:26:14.640Z,20.30
2023-04-09T23:28:42.484Z,21.10
2023-04-09T23:31:10.277Z,24.10
2023-04-09T23:33:38.164Z,20.57
2023-04-09T23:36:05.998Z,18.97
2023-04-09T23:38:33.828Z,24.97
2023-04-09T23:41:01.583Z,28.37
2023-04-09T23:43:29.354Z,19.03
2023-04-09T23:45:56.877Z,16.47
2023-04-09T23:48:24.711Z,20.00
2023-04-09T23:50:52.361Z,17.70
2023-04-09T23:53:20.323Z,21.23
2023-04-09T23:55:50.116Z,17.63
2023-04-09T23:58:18.918Z,19.20
